Time;durP1;ratioP1;P1;durP2;ratioP2;P2;SDS_P1;SDS_P2;PMS_P1;PMS_P2;Temp;Humidity;BMP_temperature;BMP_pressure;BME280_temperature;BME280_humidity;BME280_pressure;Samples;Min_cycle;Max_cycle;Signal;HPM_P1;HPM_P2
2023/01/19 00:00:19;;;;;;;;;;;;;;;4.40;84.49;100140.78;7363606;19;19919;-61
2023/01/19 00:02:46;;;;;;;;;;;;;;;4.37;84.11;100135.84;7365252;19;19931;-62
2023/01/19 00:05:13;;;;;;;;;;;;;;;4.36;84.17;100135.03;7364683;19;19959;-62
2023/01/19 00:07:40;;;;;;;;;;;;;;;4.34;84.95;100136.91;7363303;19;19933;-62
2023/01/19 00:10:08;;;;;;;;;;;;;;;4.32;85.17;100139.66;7362150;19;19927;-62
2023/01/19 00:12:35;;;;;;;;;;;;;;;4.30;84.90;100125.97;7356256;19;19927;-61
2023/01/19 00:15:02;;;;;;;;;;;;;;;4.29;85.21;100126.91;7366216;19;20189;-62
2023/01/19 00:17:29;;;;;;;;;;;;;;;4.29;84.94;100129.50;7364062;19;19951;-61
2023/01/19 00:19:56;;;;;;;;;;;;;;;4.26;84.78;100145.41;7362366;19;19960;-63
2023/01/19 00:22:22;;;;;;;;;;;;;;;4.25;85.31;100132.50;7361432;19;19994;-63
2023/01/19 00:24:49;;;;;;;;;;;;;;;4.19;84.94;100136.44;7333130;19;19927;-62
2023/01/19 00:27:16;;;;;;;;;;;;;;;4.18;85.31;100140.00;7362098;19;20720;-62
2023/01/19 00:29:43;;;;;;;;;;;;;;;4.20;85.55;100139.88;7358867;19;19926;-62
2023/01/19 00:32:10;;;;;;;;;;;;;;;4.17;85.44;100138.34;7358660;19;19930;-62
2023/01/19 00:34:38;;;;;;;;;;;;;;;4.18;85.23;100137.41;7363395;19;19994;-60
2023/01/19 00:37:05;;;;;;;;;;;;;;;4.17;85.09;100135.75;7363579;19;19929;-62
2023/01/19 00:39:32;;;;;;;;;;;;;;;4.16;84.93;100143.69;7357177;19;20293;-61
2023/01/19 00:44:36;;;;;;;;;;;;;;;4.13;84.89;100149.16;7363004;19;19919;-61
2023/01/19 00:47:04;;;;;;;;;;;;;;;4.10;84.78;100150.25;7368134;19;20284;-63
2023/01/19 00:49:31;;;;;;;;;;;;;;;4.10;84.87;100144.22;7369980;19;19927;-63
2023/01/19 00:51:58;;;;;;;;;;;;;;;4.08;85.05;100143.50;7370354;19;19933;-63
2023/01/19 00:54:24;;;;;;;;;;;;;;;4.05;84.84;100152.41;7366508;19;19928;-61
2023/01/19 00:56:53;;;;;;;;;;;;;;;4.03;85.16;100143.88;7369077;19;19923;-61
2023/01/19 00:59:19;;;;;;;;;;;;;;;4.02;85.15;100137.03;7368614;19;20253;-61
2023/01/19 01:01:46;;;;;;;;;;;;;;;4.01;85.06;100148.41;7370158;19;19929;-63
2023/01/19 01:04:15;;;;;;;;;;;;;;;4.00;84.95;100141.56;7370894;19;19919;-62
2023/01/19 01:06:42;;;;;;;;;;;;;;;3.99;85.05;100139.06;7369120;19;19929;-62
2023/01/19 01:09:12;;;;;;;;;;;;;;;3.97;85.38;100144.38;7367050;19;20336;-62
2023/01/19 01:11:40;;;;;;;;;;;;;;;3.96;85.33;100149.75;7366829;19;19923;-62
2023/01/19 01:14:11;;;;;;;;;;;;;;;3.93;85.33;100155.19;7368640;19;20449;-62
2023/01/19 01:16:38;;;;;;;;;;;;;;;3.92;85.23;100149.16;7371876;19;20372;-61
2023/01/19 01:19:05;;;;;;;;;;;;;;;3.93;85.73;100148.22;7370067;19;19925;-62
2023/01/19 01:21:33;;;;;;;;;;;;;;;3.91;85.60;100141.50;7368270;19;20516;-62
2023/01/19 01:24:00;;;;;;;;;;;;;;;3.90;85.28;100151.06;7369189;19;19947;-62
2023/01/19 01:26:28;;;;;;;;;;;;;;;3.87;85.37;100149.53;7368296;19;19931;-61
2023/01/19 01:28:54;;;;;;;;;;;;;;;3.84;85.54;100154.19;7368476;19;19954;-64
2023/01/19 01:31:21;;;;;;;;;;;;;;;3.83;85.83;100153.34;7362651;19;19972;-62
2023/01/19 01:33:48;;;;;;;;;;;;;;;3.84;85.63;100154.19;7366098;19;20270;-61
2023/01/19 01:36:17;;;;;;;;;;;;;;;3.81;85.65;100151.81;7367789;19;20296;-63
2023/01/19 01:38:44;;;;;;;;;;;;;;;3.81;85.48;100154.41;7364273;19;19955;-62
2023/01/19 01:41:11;;;;;;;;;;;;;;;3.78;85.35;100165.09;7368064;19;19929;-62
2023/01/19 01:43:41;;;;;;;;;;;;;;;3.75;85.51;100165.34;7341065;19;19919;-62
2023/01/19 01:46:08;;;;;;;;;;;;;;;3.75;85.92;100160.16;7368960;19;20585;-62
2023/01/19 01:48:36;;;;;;;;;;;;;;;3.75;86.04;100162.75;7370251;19;21671;-61
2023/01/19 01:53:43;;;;;;;;;;;;;;;3.75;85.94;100162.75;7365193;19;21628;-62
2023/01/19 01:56:12;;;;;;;;;;;;;;;3.75;86.29;100157.53;7365672;19;19919;-62
2023/01/19 01:58:39;;;;;;;;;;;;;;;3.72;86.01;100163.81;7367691;19;20718;-63
2023/01/19 02:03:43;;;;;;;;;;;;;;;3.66;85.75;100168.69;7368944;19;19930;-61
2023/01/19 02:06:11;;;;;;;;;;;;;;;3.67;86.19;100157.31;7365008;19;19923;-62
2023/01/19 02:13:57;;;;;;;;;;;;;;;3.63;86.29;100155.94;7367208;19;19918;-62
2023/01/19 02:16:24;;;;;;;;;;;;;;;3.61;86.13;100163.03;7349994;19;20992;-62
2023/01/19 02:18:51;;;;;;;;;;;;;;;3.59;86.24;100168.38;7387407;19;19915;-62
2023/01/19 02:21:22;;;;;;;;;;;;;;;3.58;86.52;100168.47;7388919;19;19918;-62
2023/01/19 02:23:50;;;;;;;;;;;;;;;3.58;86.54;100171.09;7388313;19;20035;-62
2023/01/19 02:26:20;;;;;;;;;;;;;;;3.55;86.19;100164.38;7386860;19;19943;-62
2023/01/19 02:28:49;;;;;;;;;;;;;;;3.55;86.36;100168.75;7390482;19;19943;-62
2023/01/19 02:31:16;;;;;;;;;;;;;;;3.55;86.53;100171.34;7387888;19;19926;-62
2023/01/19 02:33:43;;;;;;;;;;;;;;;3.54;86.95;100178.31;7383688;19;19919;-62
2023/01/19 02:36:12;;;;;;;;;;;;;;;3.54;86.78;100173.13;7389909;19;19925;-61
2023/01/19 02:38:40;;;;;;;;;;;;;;;3.54;87.07;100172.28;7384947;19;20265;-62
2023/01/19 02:41:11;;;;;;;;;;;;;;;3.53;86.74;100168.84;7389674;19;19919;-63
2023/01/19 02:43:38;;;;;;;;;;;;;;;3.51;86.87;100170.75;7387379;19;20205;-62
2023/01/19 02:46:04;;;;;;;;;;;;;;;3.51;86.92;100168.16;7385015;19;19926;-62
2023/01/19 02:48:31;;;;;;;;;;;;;;;3.51;87.08;100167.31;7387168;19;19911;-62
2023/01/19 02:51:03;;;;;;;;;;;;;;;3.48;87.09;100165.81;7388165;19;19937;-64
2023/01/19 02:53:30;;;;;;;;;;;;;;;3.46;86.97;100167.69;7388304;19;20380;-61
2023/01/19 02:56:02;;;;;;;;;;;;;;;3.42;86.64;100169.72;7388063;19;19930;-62
2023/01/19 02:58:35;;;;;;;;;;;;;;;3.39;87.04;100162.19;7387098;19;19946;-62
2023/01/19 03:01:12;;;;;;;;;;;;;;;3.38;87.19;100163.13;7387859;19;19915;-62
2023/01/19 03:03:40;;;;;;;;;;;;;;;3.37;87.38;100169.28;7389582;19;20221;-61
2023/01/19 03:06:13;;;;;;;;;;;;;;;3.33;87.78;100170.47;7386744;19;19915;-61
2023/01/19 03:08:40;;;;;;;;;;;;;;;3.32;87.86;100175.78;7386615;19;19918;-62
2023/01/19 03:11:08;;;;;;;;;;;;;;;3.29;87.76;100169.06;7381825;19;20333;-63
2023/01/19 03:13:36;;;;;;;;;;;;;;;3.30;87.87;100167.31;7386332;19;20305;-62
2023/01/19 03:16:03;;;;;;;;;;;;;;;3.31;88.08;100169.75;7364493;19;19929;-62
2023/01/19 03:18:32;;;;;;;;;;;;;;;3.31;88.47;100177.56;7383637;19;19915;-65
2023/01/19 03:21:02;;;;;;;;;;;;;;;3.33;88.46;100172.25;7385895;19;19919;-62
2023/01/19 03:23:30;;;;;;;;;;;;;;;3.34;88.09;100176.50;7385857;19;20534;-62
2023/01/19 03:25:59;;;;;;;;;;;;;;;3.33;88.11;100180.03;7380751;19;19986;-63
2023/01/19 03:28:27;;;;;;;;;;;;;;;3.33;87.70;100180.88;7386098;19;19918;-62
2023/01/19 03:30:57;;;;;;;;;;;;;;;3.33;87.79;100187.84;7381943;19;19927;-61
2023/01/19 03:33:27;;;;;;;;;;;;;;;3.28;87.85;100183.00;7354993;19;19939;-61
2023/01/19 03:35:57;;;;;;;;;;;;;;;3.27;87.96;100180.53;7383350;19;19918;-61
2023/01/19 03:38:26;;;;;;;;;;;;;;;3.24;87.98;100180.78;7383334;19;19930;-62
2023/01/19 03:40:55;;;;;;;;;;;;;;;3.22;87.92;100174.88;7383170;19;19915;-63
2023/01/19 03:43:22;;;;;;;;;;;;;;;3.22;88.08;100182.66;7384167;19;20034;-63
2023/01/19 03:45:50;;;;;;;;;;;;;;;3.21;88.04;100175.81;7386390;19;19930;-62
2023/01/19 03:48:17;;;;;;;;;;;;;;;3.21;88.17;100175.81;7386336;19;19915;-61
2023/01/19 03:50:44;;;;;;;;;;;;;;;3.20;88.33;100184.56;7384474;19;19918;-63
2023/01/19 03:53:14;;;;;;;;;;;;;;;3.19;88.07;100188.13;7388004;19;19921;-62
2023/01/19 03:55:44;;;;;;;;;;;;;;;3.17;88.26;100185.63;7383843;19;19929;-62
2023/01/19 03:58:11;;;;;;;;;;;;;;;3.15;88.38;100194.50;7384711;19;19919;-62
2023/01/19 04:00:38;;;;;;;;;;;;;;;3.15;88.51;100184.13;7363647;19;19923;-62
2023/01/19 04:03:10;;;;;;;;;;;;;;;3.16;88.64;100181.38;7380260;19;20016;-61
2023/01/19 04:05:38;;;;;;;;;;;;;;;3.12;88.29;100187.78;7382417;19;19986;-63
2023/01/19 04:08:05;;;;;;;;;;;;;;;3.10;88.33;100186.25;7385945;19;19942;-62
2023/01/19 04:10:32;;;;;;;;;;;;;;;3.09;88.61;100187.19;7383350;19;19925;-63
2023/01/19 04:13:00;;;;;;;;;;;;;;;3.08;88.59;100190.72;7384615;19;19919;-61
2023/01/19 04:15:28;;;;;;;;;;;;;;;3.07;88.72;100191.69;7386330;19;19982;-62
2023/01/19 04:17:56;;;;;;;;;;;;;;;3.07;88.92;100192.50;7386980;19;19923;-61
2023/01/19 04:20:25;;;;;;;;;;;;;;;3.06;88.97;100190.84;7386127;19;20422;-62
2023/01/19 04:22:53;;;;;;;;;;;;;;;3.06;88.90;100190.00;7384138;19;20332;-62
2023/01/19 04:25:21;;;;;;;;;;;;;;;3.05;88.68;100185.78;7383931;19;19927;-63
2023/01/19 04:27:50;;;;;;;;;;;;;;;3.02;88.53;100184.25;7382905;19;20492;-62
2023/01/19 04:30:17;;;;;;;;;;;;;;;3.00;88.68;100186.94;7383276;19;19933;-62
2023/01/19 04:32:44;;;;;;;;;;;;;;;2.99;88.61;100193.13;7384144;19;19973;-62
2023/01/19 04:35:11;;;;;;;;;;;;;;;2.98;88.74;100194.06;7380696;19;19919;-62
2023/01/19 04:37:38;;;;;;;;;;;;;;;2.98;88.98;100196.66;7382700;19;19923;-63
2023/01/19 04:40:06;;;;;;;;;;;;;;;3.00;89.02;100186.13;7385607;19;20041;-63
2023/01/19 04:42:33;;;;;;;;;;;;;;;3.00;89.19;100186.94;7385903;19;20220;-62
2023/01/19 04:45:00;;;;;;;;;;;;;;;3.00;88.82;100189.56;7386074;19;19942;-62
2023/01/19 04:47:27;;;;;;;;;;;;;;;3.00;89.16;100188.72;7384610;19;20316;-62
2023/01/19 04:49:53;;;;;;;;;;;;;;;2.98;88.79;100191.47;7384902;19;19915;-62
2023/01/19 04:52:20;;;;;;;;;;;;;;;2.98;88.81;100193.22;7380923;19;19910;-62
2023/01/19 04:54:47;;;;;;;;;;;;;;;2.96;88.58;100182.13;7386273;19;19919;-63
2023/01/19 04:57:14;;;;;;;;;;;;;;;2.96;89.14;100182.13;7382140;19;20012;-62
2023/01/19 04:59:41;;;;;;;;;;;;;;;2.96;88.99;100182.13;7384286;19;19921;-62
2023/01/19 05:02:08;;;;;;;;;;;;;;;2.95;88.64;100183.06;7356645;19;19915;-61
2023/01/19 05:04:35;;;;;;;;;;;;;;;2.94;89.08;100179.66;7383137;19;20248;-62
2023/01/19 05:07:02;;;;;;;;;;;;;;;2.95;88.92;100177.88;7384929;19;19914;-62
2023/01/19 05:09:29;;;;;;;;;;;;;;;2.93;88.58;100177.19;7384309;19;19914;-62
2023/01/19 05:11:56;;;;;;;;;;;;;;;2.90;88.48;100172.22;7384057;19;20581;-62
2023/01/19 05:14:23;;;;;;;;;;;;;;;2.91;88.95;100181.66;7383063;19;19923;-63
2023/01/19 05:16:50;;;;;;;;;;;;;;;2.90;89.08;100167.00;7383964;19;20006;-61
2023/01/19 05:19:17;;;;;;;;;;;;;;;2.90;88.96;100170.44;7385342;19;19918;-62
2023/01/19 05:21:43;;;;;;;;;;;;;;;2.91;89.27;100173.88;7384951;19;20415;-63
2023/01/19 05:24:11;;;;;;;;;;;;;;;2.90;89.01;100178.22;7382748;19;19919;-65
2023/01/19 05:26:38;;;;;;;;;;;;;;;2.88;88.97;100174.94;7362508;19;19943;-61
2023/01/19 05:29:05;;;;;;;;;;;;;;;2.89;89.10;100178.38;7376814;19;19950;-63
2023/01/19 05:31:31;;;;;;;;;;;;;;;2.87;89.04;100183.69;7380312;19;20332;-62
2023/01/19 05:33:59;;;;;;;;;;;;;;;2.86;88.84;100181.19;7390450;19;19926;-63
2023/01/19 05:36:26;;;;;;;;;;;;;;;2.85;88.82;100179.53;7386263;19;19919;-62
2023/01/19 05:38:53;;;;;;;;;;;;;;;2.85;89.06;100185.56;7387410;19;20337;-61
2023/01/19 05:41:20;;;;;;;;;;;;;;;2.86;88.83;100176.81;7389168;19;20277;-62
2023/01/19 05:43:47;;;;;;;;;;;;;;;2.86;88.73;100178.59;7390130;19;19915;-62
2023/01/19 05:46:14;;;;;;;;;;;;;;;2.86;88.67;100176.81;7390112;19;19919;-62
2023/01/19 05:48:41;;;;;;;;;;;;;;;2.85;88.96;100179.53;7389918;19;19955;-62
2023/01/19 05:51:08;;;;;;;;;;;;;;;2.84;88.90;100172.72;7388867;19;19915;-61
2023/01/19 05:53:35;;;;;;;;;;;;;;;2.84;88.86;100178.72;7389672;19;19919;-62
2023/01/19 05:56:03;;;;;;;;;;;;;;;2.83;88.58;100176.25;7391216;19;20263;-62
2023/01/19 05:58:30;;;;;;;;;;;;;;;2.80;88.51;100176.47;7391231;19;19974;-61
2023/01/19 06:01:00;;;;;;;;;;;;;;;2.76;88.56;100181.09;7389360;19;19978;-62
2023/01/19 06:03:28;;;;;;;;;;;;;;;2.75;88.76;100168.22;7390716;19;19926;-63
2023/01/19 06:05:56;;;;;;;;;;;;;;;2.71;88.66;100180.63;7389280;19;19926;-62
2023/01/19 06:08:23;;;;;;;;;;;;;;;2.69;89.02;100171.31;7391186;19;20047;-62
2023/01/19 06:10:50;;;;;;;;;;;;;;;2.74;90.15;100172.59;7386941;19;19933;-61
2023/01/19 06:13:17;;;;;;;;;;;;;;;2.78;91.21;100170.59;7387225;19;19918;-62
2023/01/19 06:15:44;;;;;;;;;;;;;;;2.78;90.88;100174.00;7387791;19;19919;-62
2023/01/19 06:18:13;;;;;;;;;;;;;;;2.79;90.53;100177.44;7389235;19;19925;-62
2023/01/19 06:20:40;;;;;;;;;;;;;;;2.79;90.64;100170.47;7389725;19;19918;-62
2023/01/19 06:23:06;;;;;;;;;;;;;;;2.79;90.49;100167.88;7389735;19;19925;-62
2023/01/19 06:25:34;;;;;;;;;;;;;;;2.74;90.25;100170.00;7388954;19;19923;-61
2023/01/19 06:28:00;;;;;;;;;;;;;;;2.68;89.44;100160.09;7383806;19;19949;-62
2023/01/19 06:30:27;;;;;;;;;;;;;;;2.63;89.48;100164.00;7372429;19;19919;-62
2023/01/19 06:32:54;;;;;;;;;;;;;;;2.62;89.54;100172.72;7387137;19;19936;-63
2023/01/19 06:35:21;;;;;;;;;;;;;;;2.61;89.56;100169.28;7389082;19;19940;-62
2023/01/19 06:37:48;;;;;;;;;;;;;;;2.64;89.53;100182.06;7383707;19;19915;-62
2023/01/19 06:40:15;;;;;;;;;;;;;;;2.63;89.70;100180.41;7388412;19;19938;-62
2023/01/19 06:42:42;;;;;;;;;;;;;;;2.63;89.88;100171.78;7385743;19;20344;-61
2023/01/19 06:45:09;;;;;;;;;;;;;;;2.64;89.81;100179.47;7386372;19;19918;-62
2023/01/19 06:47:36;;;;;;;;;;;;;;;2.63;89.90;100175.19;7387787;19;20304;-62
2023/01/19 06:50:03;;;;;;;;;;;;;;;2.68;90.30;100186.06;7390204;19;19918;-62
2023/01/19 06:52:30;;;;;;;;;;;;;;;2.73;90.61;100186.53;7388336;19;20026;-61
2023/01/19 06:54:57;;;;;;;;;;;;;;;2.78;90.98;100184.41;7373209;19;19918;-60
2023/01/19 06:57:24;;;;;;;;;;;;;;;2.79;91.45;100182.63;7377201;19;19919;-62
2023/01/19 06:59:51;;;;;;;;;;;;;;;2.78;91.04;100194.78;7386604;19;19943;-65
2023/01/19 07:02:21;;;;;;;;;;;;;;;2.76;90.86;100190.66;7387650;19;19923;-61
2023/01/19 07:04:53;;;;;;;;;;;;;;;2.76;90.60;100188.88;7389334;19;20275;-63
2023/01/19 07:07:20;;;;;;;;;;;;;;;2.77;90.47;100203.53;7386885;19;19918;-61
2023/01/19 07:09:47;;;;;;;;;;;;;;;2.83;90.62;100197.03;7388256;19;19923;-63
2023/01/19 07:12:14;;;;;;;;;;;;;;;2.83;90.58;100202.22;7386755;19;19939;-62
2023/01/19 07:14:41;;;;;;;;;;;;;;;2.86;91.01;100205.41;7389702;19;19958;-62
2023/01/19 07:17:08;;;;;;;;;;;;;;;2.92;91.97;100202.31;7388447;19;19923;-62
2023/01/19 07:19:35;;;;;;;;;;;;;;;2.95;91.78;100216.84;7390131;19;19922;-62
2023/01/19 07:22:02;;;;;;;;;;;;;;;2.93;91.51;100216.16;7389777;19;20427;-64
2023/01/19 07:24:30;;;;;;;;;;;;;;;2.93;90.68;100218.75;7389570;19;20334;-62
2023/01/19 07:26:57;;;;;;;;;;;;;;;2.94;90.75;100216.03;7388310;19;20350;-62
2023/01/19 07:29:24;;;;;;;;;;;;;;;2.95;91.09;100219.44;7386620;19;19926;-61
2023/01/19 07:31:53;;;;;;;;;;;;;;;2.94;91.13;100221.22;7387323;19;20457;-62
2023/01/19 07:34:20;;;;;;;;;;;;;;;2.93;90.62;100231.72;7389132;19;19926;-61
2023/01/19 07:36:47;;;;;;;;;;;;;;;2.92;90.30;100220.50;7389860;19;19919;-62
2023/01/19 07:39:14;;;;;;;;;;;;;;;2.92;90.22;100222.28;7385300;19;19923;-62
2023/01/19 07:41:46;;;;;;;;;;;;;;;2.93;90.31;100218.75;7386155;19;20332;-63
2023/01/19 07:44:14;;;;;;;;;;;;;;;2.98;91.41;100227.84;7388115;19;20380;-62
2023/01/19 07:46:42;;;;;;;;;;;;;;;3.02;92.11;100228.41;7389214;19;20303;-61
2023/01/19 07:49:09;;;;;;;;;;;;;;;3.04;92.17;100223.09;7391924;19;19918;-62
2023/01/19 07:51:36;;;;;;;;;;;;;;;3.01;92.06;100224.16;7386584;19;19939;-62
2023/01/19 07:54:03;;;;;;;;;;;;;;;2.97;91.42;100231.38;7387288;19;19922;-62
2023/01/19 07:56:31;;;;;;;;;;;;;;;2.96;90.54;100234.91;7384334;19;20247;-62
2023/01/19 07:58:59;;;;;;;;;;;;;;;2.97;90.41;100240.94;7385690;19;19923;-62
2023/01/19 08:01:27;;;;;;;;;;;;;;;3.00;89.76;100232.88;7386017;19;19914;-66
2023/01/19 08:03:54;;;;;;;;;;;;;;;2.97;89.46;100236.56;7383832;19;20038;-62
2023/01/19 08:06:22;;;;;;;;;;;;;;;2.95;89.00;100238.44;7378447;19;19919;-64
2023/01/19 08:08:49;;;;;;;;;;;;;;;2.91;89.15;100246.59;7382830;19;19918;-62
2023/01/19 08:11:16;;;;;;;;;;;;;;;2.88;88.72;100241.66;7388500;19;20041;-62
2023/01/19 08:13:43;;;;;;;;;;;;;;;2.89;88.95;100245.91;7387789;19;19911;-62
2023/01/19 08:16:10;;;;;;;;;;;;;;;2.89;89.20;100240.72;7387434;19;20364;-62
2023/01/19 08:18:37;;;;;;;;;;;;;;;2.91;89.38;100239.63;7389703;19;19944;-63
2023/01/19 08:21:04;;;;;;;;;;;;;;;2.94;89.28;100241.19;7386844;19;19911;-63
2023/01/19 08:23:31;;;;;;;;;;;;;;;2.96;89.92;100239.28;7388367;19;19915;-61
2023/01/19 08:25:58;;;;;;;;;;;;;;;2.98;90.27;100234.78;7388674;19;20009;-62
2023/01/19 08:28:25;;;;;;;;;;;;;;;2.99;89.75;100233.84;7388461;19;20273;-62
2023/01/19 08:30:53;;;;;;;;;;;;;;;3.03;89.83;100243.06;7388777;19;20310;-61
2023/01/19 08:33:20;;;;;;;;;;;;;;;3.08;90.01;100245.31;7385172;19;19921;-64
2023/01/19 08:35:48;;;;;;;;;;;;;;;3.09;89.28;100263.38;7386510;19;19990;-62
2023/01/19 08:38:16;;;;;;;;;;;;;;;3.11;89.01;100264.06;7383514;19;20329;-63
2023/01/19 08:40:43;;;;;;;;;;;;;;;3.12;88.91;100262.28;7384752;19;19914;-65
2023/01/19 08:43:12;;;;;;;;;;;;;;;3.14;88.85;100263.00;7384540;19;19925;-63
2023/01/19 08:45:41;;;;;;;;;;;;;;;3.15;88.91;100256.88;7386202;19;19914;-63
2023/01/19 08:48:09;;;;;;;;;;;;;;;3.13;88.63;100263.97;7384109;19;20519;-62
2023/01/19 08:50:36;;;;;;;;;;;;;;;3.13;89.32;100258.75;7387472;19;19918;-62
2023/01/19 08:53:05;;;;;;;;;;;;;;;3.15;89.37;100259.47;7382581;19;19919;-63
2023/01/19 08:55:33;;;;;;;;;;;;;;;3.15;89.43;100268.06;7385691;19;19991;-62
2023/01/19 08:58:00;;;;;;;;;;;;;;;3.13;88.94;100264.78;7385915;19;20213;-63
2023/01/19 09:00:30;;;;;;;;;;;;;;;3.10;89.04;100259.00;7387471;19;19923;-62
2023/01/19 09:02:57;;;;;;;;;;;;;;;3.10;89.04;100272.00;7385619;19;20079;-62
2023/01/19 09:05:24;;;;;;;;;;;;;;;3.08;88.65;100259.13;7386177;19;20259;-62
2023/01/19 09:07:51;;;;;;;;;;;;;;;3.56;98.24;100264.81;7389634;19;20206;-63
2023/01/19 09:10:18;;;;;;;;;;;;;;;3.98;100.00;100257.94;7393457;19;19914;-62
2023/01/19 09:12:45;;;;;;;;;;;;;;;4.03;99.25;100266.19;7390643;19;20432;-62
2023/01/19 09:15:13;;;;;;;;;;;;;;;3.97;96.67;100274.50;7393086;19;19945;-62
2023/01/19 09:17:41;;;;;;;;;;;;;;;3.86;92.70;100271.94;7394628;19;19914;-60
2023/01/19 09:20:08;;;;;;;;;;;;;;;3.79;90.28;100273.41;7395003;19;19933;-60
2023/01/19 09:22:35;;;;;;;;;;;;;;;3.76;88.72;100276.22;7393465;19;19931;-64
2023/01/19 09:25:03;;;;;;;;;;;;;;;3.73;88.09;100279.09;7394917;19;19944;-62
2023/01/19 09:27:30;;;;;;;;;;;;;;;3.67;87.78;100283.00;7393985;19;19978;-63
2023/01/19 09:29:57;;;;;;;;;;;;;;;3.63;87.29;100280.75;7392205;19;19923;-63
2023/01/19 09:32:24;;;;;;;;;;;;;;;3.67;87.54;100279.56;7389605;19;19926;-62
2023/01/19 09:34:53;;;;;;;;;;;;;;;3.64;87.74;100279.81;7393914;19;19923;-61
2023/01/19 09:37:21;;;;;;;;;;;;;;;3.69;87.58;100282.88;7389501;19;19921;-63
2023/01/19 09:39:48;;;;;;;;;;;;;;;3.69;86.89;100282.88;7389126;19;19923;-63
2023/01/19 09:42:17;;;;;;;;;;;;;;;3.69;87.14;100281.09;7394261;19;19922;-62
2023/01/19 09:44:46;;;;;;;;;;;;;;;3.73;87.26;100286.88;7392181;19;19983;-63
2023/01/19 09:47:15;;;;;;;;;;;;;;;3.76;87.39;100284.03;7391625;19;19921;-63
2023/01/19 09:49:44;;;;;;;;;;;;;;;3.79;87.24;100284.63;7390847;19;19915;-62
2023/01/19 09:52:12;;;;;;;;;;;;;;;3.84;87.49;100279.88;7389681;19;19918;-63
2023/01/19 09:54:46;;;;;;;;;;;;;;;3.87;87.46;100291.81;7390110;19;20571;-63
2023/01/19 09:57:13;;;;;;;;;;;;;;;3.90;86.83;100288.13;7393897;19;20340;-63
2023/01/19 09:59:42;;;;;;;;;;;;;;;3.93;86.39;100285.28;7391419;19;19915;-63
2023/01/19 10:02:12;;;;;;;;;;;;;;;3.96;86.21;100298.06;7392296;19;20443;-60
2023/01/19 10:04:40;;;;;;;;;;;;;;;3.98;86.17;100299.56;7393083;19;19915;-65
2023/01/19 10:07:08;;;;;;;;;;;;;;;4.00;85.56;100302.91;7391406;19;19927;-62
2023/01/19 10:09:38;;;;;;;;;;;;;;;4.03;85.25;100302.63;7391284;19;19919;-62
2023/01/19 10:12:15;;;;;;;;;;;;;;;4.05;85.08;100305.94;7391705;19;19946;-62
2023/01/19 10:14:52;;;;;;;;;;;;;;;4.08;84.77;100307.47;7389320;19;19935;-62
2023/01/19 10:17:28;;;;;;;;;;;;;;;4.13;85.32;100297.50;7390070;19;19919;-63
2023/01/19 10:19:56;;;;;;;;;;;;;;;4.13;84.78;100300.94;7391145;19;19926;-62
2023/01/19 10:22:24;;;;;;;;;;;;;;;4.15;84.77;100303.41;7392674;19;19926;-61
2023/01/19 10:24:54;;;;;;;;;;;;;;;4.19;85.02;100310.03;7392075;19;19933;-63
2023/01/19 10:27:23;;;;;;;;;;;;;;;4.22;84.74;100312.38;7390363;19;19927;-62
2023/01/19 10:29:50;;;;;;;;;;;;;;;4.26;84.95;100308.59;7391616;19;19947;-62
2023/01/19 10:32:20;;;;;;;;;;;;;;;4.28;84.85;100317.91;7390425;19;19944;-62
2023/01/19 10:34:48;;;;;;;;;;;;;;;4.32;84.60;100317.66;7393473;19;19929;-62
2023/01/19 10:37:17;;;;;;;;;;;;;;;4.29;84.38;100319.56;7389206;19;19915;-62
2023/01/19 10:39:45;;;;;;;;;;;;;;;4.34;84.54;100313.97;7390068;19;20491;-64
2023/01/19 10:42:14;;;;;;;;;;;;;;;4.41;84.68;100314.31;7392345;19;20264;-61
2023/01/19 10:44:41;;;;;;;;;;;;;;;4.46;84.37;100312.97;7388130;19;19921;-62
2023/01/19 10:47:12;;;;;;;;;;;;;;;4.50;84.16;100310.94;7390741;19;19978;-64
2023/01/19 10:49:41;;;;;;;;;;;;;;;4.52;83.92;100311.66;7390660;19;19933;-63
2023/01/19 10:52:11;;;;;;;;;;;;;;;4.54;84.07;100310.56;7387385;19;19922;-62
2023/01/19 10:54:41;;;;;;;;;;;;;;;4.56;83.57;100310.44;7389966;19;19918;-62
2023/01/19 10:57:11;;;;;;;;;;;;;;;4.58;83.50;100300.69;7390986;19;19919;-62
2023/01/19 10:59:41;;;;;;;;;;;;;;;4.62;83.19;100309.94;7387978;19;19925;-61
2023/01/19 11:02:11;;;;;;;;;;;;;;;4.66;83.62;100299.13;7391940;19;19932;-62
2023/01/19 11:04:38;;;;;;;;;;;;;;;4.72;84.03;100303.81;7387148;19;19921;-61
2023/01/19 11:07:08;;;;;;;;;;;;;;;4.75;83.61;100302.72;7390893;19;20028;-61
2023/01/19 11:09:35;;;;;;;;;;;;;;;4.76;83.40;100304.38;7386342;19;19970;-61
2023/01/19 11:12:03;;;;;;;;;;;;;;;4.82;83.15;100300.44;7389759;19;20333;-63
2023/01/19 11:14:30;;;;;;;;;;;;;;;4.87;83.62;100296.50;7386680;19;20605;-63
2023/01/19 11:16:57;;;;;;;;;;;;;;;4.93;83.72;100295.97;7389741;19;19910;-62
2023/01/19 11:19:27;;;;;;;;;;;;;;;5.00;83.18;100291.88;7390435;19;19910;-63
2023/01/19 11:22:01;;;;;;;;;;;;;;;5.07;83.28;100298.25;7387321;19;19922;-63
2023/01/19 11:24:29;;;;;;;;;;;;;;;5.13;82.81;100296.88;7388237;19;19918;-63
2023/01/19 11:27:01;;;;;;;;;;;;;;;5.18;82.73;100292.91;7391203;19;19932;-63
2023/01/19 11:29:28;;;;;;;;;;;;;;;5.24;82.32;100291.56;7385430;19;20475;-62
2023/01/19 11:32:08;;;;;;;;;;;;;;;5.31;82.15;100292.69;7389633;19;19939;-62
2023/01/19 11:34:37;;;;;;;;;;;;;;;5.39;81.83;100287.63;7387607;19;19922;-61
2023/01/19 11:37:23;;;;;;;;;;;;;;;5.48;81.54;100296.47;7387041;19;20245;-62
2023/01/19 11:39:51;;;;;;;;;;;;;;;5.53;81.41;100295.09;7389108;19;19919;-62
2023/01/19 11:42:19;;;;;;;;;;;;;;;5.61;81.10;100291.81;7387155;19;19982;-61
2023/01/19 11:44:49;;;;;;;;;;;;;;;5.68;80.99;100292.94;7386062;19;19987;-62
2023/01/19 11:47:22;;;;;;;;;;;;;;;5.71;80.60;100292.66;7389506;19;20290;-62
2023/01/19 11:49:49;;;;;;;;;;;;;;;5.76;80.44;100294.84;7388666;19;19929;-62
2023/01/19 11:52:19;;;;;;;;;;;;;;;5.81;80.48;100303.09;7388468;19;19953;-62
2023/01/19 11:54:53;;;;;;;;;;;;;;;5.85;80.30;100302.69;7386008;19;19919;-63
2023/01/19 11:57:21;;;;;;;;;;;;;;;5.88;80.50;100297.25;7389244;19;20329;-62
2023/01/19 11:59:48;;;;;;;;;;;;;;;5.90;80.18;100290.09;7387299;19;20340;-62
2023/01/19 12:02:19;;;;;;;;;;;;;;;5.92;79.67;100296.00;7388044;19;19923;-63
2023/01/19 12:04:48;;;;;;;;;;;;;;;5.95;79.76;100300.13;7388651;19;19971;-63
2023/01/19 12:07:18;;;;;;;;;;;;;;;6.00;79.60;100293.53;7386668;19;19923;-63
2023/01/19 12:09:46;;;;;;;;;;;;;;;5.99;78.91;100285.84;7388221;19;20420;-62
2023/01/19 12:12:16;;;;;;;;;;;;;;;5.98;79.07;100282.41;7386518;19;19960;-62
2023/01/19 12:14:46;;;;;;;;;;;;;;;5.97;79.34;100279.94;7386405;19;20340;-63
2023/01/19 12:17:21;;;;;;;;;;;;;;;5.98;79.07;100278.97;7387521;19;19919;-61
2023/01/19 12:19:52;;;;;;;;;;;;;;;5.98;80.20;100274.59;7385987;19;20524;-63
2023/01/19 12:22:22;;;;;;;;;;;;;;;5.99;79.66;100273.59;7386728;19;19918;-62
2023/01/19 12:24:52;;;;;;;;;;;;;;;6.05;79.97;100274.84;7386231;19;20578;-61
2023/01/19 12:27:26;;;;;;;;;;;;;;;6.13;79.81;100267.16;7390516;19;19993;-62
2023/01/19 12:29:53;;;;;;;;;;;;;;;6.21;79.41;100264.66;7386761;19;19919;-62
2023/01/19 12:32:31;;;;;;;;;;;;;;;6.28;79.69;100270.16;7389666;19;19986;-63
2023/01/19 12:34:58;;;;;;;;;;;;;;;6.35;79.31;100263.41;7387736;19;19986;-63
2023/01/19 12:37:30;;;;;;;;;;;;;;;6.38;78.72;100268.38;7385990;19;19911;-62
2023/01/19 12:40:01;;;;;;;;;;;;;;;6.37;78.08;100262.31;7384009;19;19940;-62
2023/01/19 12:42:28;;;;;;;;;;;;;;;6.38;78.13;100261.34;7401423;19;20354;-63
2023/01/19 12:44:58;;;;;;;;;;;;;;;6.41;78.00;100255.84;7398488;19;19971;-62
2023/01/19 12:47:26;;;;;;;;;;;;;;;6.42;77.79;100267.13;7402292;19;19911;-63
2023/01/19 12:49:55;;;;;;;;;;;;;;;6.41;77.69;100261.06;7400743;19;19943;-64
2023/01/19 12:52:25;;;;;;;;;;;;;;;6.42;78.07;100262.72;7400760;19;19915;-62
2023/01/19 12:54:53;;;;;;;;;;;;;;;6.41;77.86;100266.28;7400477;19;19918;-62
2023/01/19 12:57:23;;;;;;;;;;;;;;;6.42;78.25;100265.34;7403399;19;20332;-62
2023/01/19 12:59:56;;;;;;;;;;;;;;;6.43;78.32;100259.16;7399785;19;19918;-62
2023/01/19 13:02:23;;;;;;;;;;;;;;;6.45;78.67;100248.53;7401634;19;19995;-63
2023/01/19 13:04:53;;;;;;;;;;;;;;;6.45;78.17;100251.97;7400764;19;20003;-64